Time;durP1;ratioP1;P1;durP2;ratioP2;P2;SDS_P1;SDS_P2;PMS_P1;PMS_P2;Temp;Humidity;BMP_temperature;BMP_pressure;BME280_temperature;BME280_humidity;BME280_pressure;Samples;Min_cycle;Max_cycle;Signal;HPM_P1;HPM_P2
2022/08/06 00:01:12;;;;;;;5.47;4.97;;;22.30;84.70;;;;;;6221146;23;20200;-91
2022/08/06 00:03:39;;;;;;;6.07;5.47;;;22.30;84.50;;;;;;6220629;23;20153;-90
2022/08/06 00:06:11;;;;;;;5.75;5.25;;;22.20;84.40;;;;;;6104456;23;20156;-91
2022/08/06 00:08:38;;;;;;;6.18;5.57;;;22.30;84.40;;;;;;6099689;23;20150;-90
2022/08/06 00:11:06;;;;;;;5.72;5.22;;;22.30;84.50;;;;;;6075217;23;20518;-91
2022/08/06 00:13:35;;;;;;;6.15;5.55;;;22.30;84.40;;;;;;6075782;23;20572;-91
2022/08/06 00:16:01;;;;;;;6.10;5.50;;;22.20;84.30;;;;;;6075185;23;20145;-90
2022/08/06 00:18:29;;;;;;;5.70;5.20;;;22.30;84.20;;;;;;6075143;23;20166;-90
2022/08/06 00:21:02;;;;;;;5.88;5.38;;;22.20;84.30;;;;;;6165205;23;20311;-90
2022/08/06 00:23:28;;;;;;;5.75;5.25;;;22.30;84.40;;;;;;6040321;23;20161;-91
2022/08/06 00:25:56;;;;;;;5.75;5.25;;;22.30;84.40;;;;;;6016523;23;20567;-91
2022/08/06 00:28:24;;;;;;;5.78;5.28;;;22.30;84.30;;;;;;6016711;23;20468;-91
2022/08/06 00:30:50;;;;;;;6.25;5.65;;;22.30;84.30;;;;;;6016345;23;20138;-90
2022/08/06 00:33:20;;;;;;;5.95;5.43;;;22.30;84.50;;;;;;6016455;23;20207;-90
2022/08/06 00:35:47;;;;;;;6.32;5.72;;;22.30;84.30;;;;;;6016796;23;20700;-91
2022/08/06 00:38:16;;;;;;;6.65;6.05;;;22.30;84.40;;;;;;6016007;23;20158;-91
2022/08/06 00:40:45;;;;;;;6.45;5.85;;;22.20;84.40;;;;;;6039224;23;20156;-91
2022/08/06 00:43:14;;;;;;;6.15;5.55;;;22.20;84.40;;;;;;6016931;23;20161;-90
2022/08/06 00:45:40;;;;;;;5.55;5.05;;;22.30;84.50;;;;;;6040606;23;20164;-91
2022/08/06 00:48:08;;;;;;;6.85;5.78;;;22.20;84.40;;;;;;6016484;23;20581;-91
2022/08/06 00:50:37;;;;;;;5.95;5.32;;;22.20;84.40;;;;;;5992790;23;20687;-91
2022/08/06 00:53:04;;;;;;;6.35;5.75;;;22.20;84.40;;;;;;6016517;23;20157;-90
2022/08/06 00:55:30;;;;;;;6.25;5.68;;;22.20;84.40;;;;;;6029828;23;20231;-91
2022/08/06 00:58:00;;;;;;;6.50;5.90;;;22.20;84.30;;;;;;6137562;23;20209;-91
2022/08/06 01:00:26;;;;;;;6.50;5.90;;;22.20;84.30;;;;;;6075302;23;20590;-91
2022/08/06 01:02:53;;;;;;;6.43;5.82;;;22.20;84.50;;;;;;6073950;23;20172;-90
2022/08/06 01:05:24;;;;;;;6.20;5.60;;;22.20;84.50;;;;;;6098495;23;20140;-90
2022/08/06 01:07:51;;;;;;;6.40;5.80;;;22.20;84.50;;;;;;6075819;23;20444;-91
2022/08/06 01:10:16;;;;;;;5.65;5.15;;;22.20;84.50;;;;;;6074980;23;20152;-90
2022/08/06 01:12:48;;;;;;;5.80;5.30;;;22.20;84.30;;;;;;6075241;23;20469;-91
2022/08/06 01:15:15;;;;;;;7.15;5.70;;;22.20;84.30;;;;;;6098413;23;20148;-91
2022/08/06 01:17:50;;;;;;;6.25;5.65;;;22.20;84.30;;;;;;6074808;23;20148;-90
2022/08/06 01:20:37;;;;;;;6.43;5.82;;;22.20;84.20;;;;;;6076081;23;20615;-90
2022/08/06 01:23:43;;;;;;;6.50;5.90;;;22.20;84.10;;;;;;6098487;23;20247;-91
2022/08/06 01:26:25;;;;;;;6.20;5.70;;;22.20;84.30;;;;;;6121900;23;20651;-91
2022/08/06 01:28:58;;;;;;;6.28;5.68;;;22.20;84.30;;;;;;6164827;23;20308;-91
2022/08/06 01:31:32;;;;;;;6.00;5.50;;;22.20;84.30;;;;;;6040725;23;20732;-89
2022/08/06 01:34:00;;;;;;;6.55;5.97;;;22.20;84.30;;;;;;6040706;23;20158;-90
2022/08/06 01:36:31;;;;;;;5.82;5.32;;;22.20;84.20;;;;;;6040543;23;20153;-90
2022/08/06 01:38:58;;;;;;;6.00;5.50;;;22.20;84.10;;;;;;6040096;23;20589;-90
2022/08/06 01:44:09;;;;;;;6.43;5.82;;;22.20;84.20;;;;;;6006262;23;20143;-91
2022/08/06 01:46:38;;;;;;;6.40;5.80;;;22.20;84.10;;;;;;5982722;23;20163;-91
2022/08/06 01:49:07;;;;;;;5.97;5.47;;;22.20;84.30;;;;;;5983273;23;20660;-90
2022/08/06 01:51:40;;;;;;;6.05;5.55;;;22.20;84.30;;;;;;5984634;23;20622;-90
2022/08/06 01:54:08;;;;;;;6.10;5.60;;;22.10;84.10;;;;;;5984901;23;20624;-90
2022/08/06 01:56:40;;;;;;;5.90;5.40;;;22.10;85.00;;;;;;5983862;23;20230;-91
2022/08/06 01:59:15;;;;;;;5.97;5.47;;;22.20;84.20;;;;;;5984392;23;20190;-90
2022/08/06 02:01:43;;;;;;;6.00;5.40;;;22.10;84.20;;;;;;6007460;23;20281;-91
2022/08/06 02:04:10;;;;;;;5.80;5.30;;;22.20;84.10;;;;;;5980089;24;20238;-91
2022/08/06 02:06:40;;;;;;;6.35;5.75;;;22.20;84.10;;;;;;5956265;23;20159;-91
2022/08/06 02:09:09;;;;;;;5.70;5.18;;;22.20;84.20;;;;;;5989616;23;20488;-90
2022/08/06 02:11:37;;;;;;;5.78;5.28;;;22.20;84.30;;;;;;5999085;23;20492;-90
2022/08/06 02:14:07;;;;;;;6.13;5.53;;;22.20;84.30;;;;;;6021627;23;20231;-90
2022/08/06 02:16:37;;;;;;;6.30;5.70;;;22.20;84.30;;;;;;6069643;23;20141;-91
2022/08/06 02:19:13;;;;;;;6.28;5.68;;;22.20;84.10;;;;;;6021684;23;20153;-90
2022/08/06 02:21:41;;;;;;;6.20;5.60;;;22.20;84.00;;;;;;6022452;23;20184;-90
2022/08/06 02:24:07;;;;;;;5.85;5.35;;;22.20;84.00;;;;;;6022576;23;20199;-91
2022/08/06 02:26:35;;;;;;;5.97;5.43;;;22.20;84.20;;;;;;6021546;23;20539;-91
2022/08/06 02:29:05;;;;;;;6.00;5.50;;;22.10;84.10;;;;;;6045577;23;20481;-91
2022/08/06 02:31:33;;;;;;;6.28;5.68;;;22.20;84.20;;;;;;6023498;23;20149;-90
2022/08/06 02:34:00;;;;;;;5.95;5.43;;;22.10;84.10;;;;;;6012179;23;20645;-91
2022/08/06 02:36:32;;;;;;;6.28;5.68;;;22.10;84.00;;;;;;6012668;23;20154;-91
2022/08/06 02:39:06;;;;;;;5.55;5.05;;;22.10;84.10;;;;;;6012578;23;20149;-91
2022/08/06 02:41:40;;;;;;;5.90;5.40;;;22.20;84.20;;;;;;6012098;23;20190;-91
2022/08/06 02:44:31;;;;;;;5.78;5.28;;;22.20;84.10;;;;;;6012552;23;20165;-91
2022/08/06 02:47:17;;;;;;;6.07;5.47;;;22.10;84.10;;;;;;6012376;23;20150;-90
2022/08/06 02:49:46;;;;;;;5.72;5.22;;;22.10;84.10;;;;;;6013187;23;20237;-90
2022/08/06 02:52:18;;;;;;;5.70;5.20;;;22.10;84.00;;;;;;6012674;23;20166;-90
2022/08/06 02:54:48;;;;;;;6.07;5.50;;;22.10;84.00;;;;;;6017592;23;20247;-91
2022/08/06 02:57:21;;;;;;;5.97;5.47;;;22.10;83.90;;;;;;6166069;23;20150;-90
2022/08/06 02:59:50;;;;;;;5.60;5.10;;;22.10;84.00;;;;;;6165218;23;20226;-90
2022/08/06 03:02:16;;;;;;;5.55;5.05;;;22.10;84.00;;;;;;6166111;23;20185;-90
2022/08/06 03:04:45;;;;;;;6.35;5.75;;;22.10;84.10;;;;;;6165893;23;20253;-90
2022/08/06 03:07:15;;;;;;;6.13;5.53;;;22.10;84.10;;;;;;6166817;23;20149;-90
2022/08/06 03:09:45;;;;;;;5.93;5.43;;;22.10;84.20;;;;;;6163765;23;20163;-91
2022/08/06 03:12:15;;;;;;;6.03;5.43;;;22.10;84.10;;;;;;6166548;23;20239;-91
2022/08/06 03:14:40;;;;;;;5.53;5.03;;;22.10;83.90;;;;;;6040427;23;20448;-91
2022/08/06 03:17:11;;;;;;;5.75;5.25;;;22.10;83.80;;;;;;6165593;23;20145;-90
2022/08/06 03:19:38;;;;;;;5.82;5.32;;;22.10;83.80;;;;;;6191628;23;20184;-90
2022/08/06 03:22:05;;;;;;;6.20;5.60;;;22.10;83.70;;;;;;6166593;23;20293;-90
2022/08/06 03:24:33;;;;;;;5.80;5.30;;;22.20;83.80;;;;;;6166378;23;20216;-91
2022/08/06 03:27:01;;;;;;;5.63;5.13;;;22.10;83.70;;;;;;6166539;23;20157;-89
2022/08/06 03:29:33;;;;;;;5.70;5.20;;;22.10;84.00;;;;;;6165694;23;20219;-90
2022/08/06 03:32:00;;;;;;;5.75;5.25;;;22.10;83.90;;;;;;6100285;23;20159;-90
2022/08/06 03:34:28;;;;;;;6.30;5.70;;;22.10;83.80;;;;;;6100914;23;20215;-91
2022/08/06 03:36:53;;;;;;;6.50;5.90;;;22.10;83.80;;;;;;6076832;23;20144;-90
2022/08/06 03:39:21;;;;;;;6.20;5.60;;;22.10;83.80;;;;;;6077372;23;20156;-91
2022/08/06 03:41:53;;;;;;;5.72;5.22;;;22.10;83.60;;;;;;6077999;23;20180;-91
2022/08/06 03:44:22;;;;;;;5.97;5.38;;;22.10;83.60;;;;;;6168035;23;20158;-90
2022/08/06 03:47:09;;;;;;;5.85;5.32;;;22.10;83.50;;;;;;6042301;23;20172;-91
2022/08/06 03:49:42;;;;;;;5.90;5.40;;;22.20;83.50;;;;;;6042435;23;20154;-91
2022/08/06 03:52:12;;;;;;;6.10;5.50;;;22.10;83.40;;;;;;6020078;23;20154;-91
2022/08/06 03:54:45;;;;;;;5.93;5.43;;;22.10;83.60;;;;;;6022042;23;20189;-91
2022/08/06 03:57:15;;;;;;;5.50;5.00;;;22.10;83.70;;;;;;6048977;23;20185;-91
2022/08/06 03:59:51;;;;;;;5.93;5.43;;;22.10;83.30;;;;;;6047711;23;20164;-90
2022/08/06 04:02:28;;;;;;;5.63;5.13;;;22.10;83.30;;;;;;6038233;23;20189;-91
2022/08/06 04:04:59;;;;;;;6.18;5.57;;;22.10;83.40;;;;;;6015099;23;20237;-90
2022/08/06 04:07:29;;;;;;;6.28;5.68;;;22.10;83.40;;;;;;5991661;23;20505;-91
2022/08/06 04:09:58;;;;;;;6.40;5.80;;;22.10;83.40;;;;;;5989665;23;20158;-91
2022/08/06 04:12:27;;;;;;;5.57;5.07;;;22.10;83.40;;;;;;5991084;23;20154;-90
2022/08/06 04:14:55;;;;;;;5.88;5.38;;;22.10;83.50;;;;;;5982198;23;20159;-90
2022/08/06 04:17:26;;;;;;;5.78;5.28;;;22.10;83.50;;;;;;6004312;23;20158;-90
2022/08/06 04:19:57;;;;;;;5.90;5.40;;;22.20;83.50;;;;;;5958291;23;20159;-91
2022/08/06 04:22:25;;;;;;;5.70;5.20;;;22.20;83.40;;;;;;5980912;23;20745;-90
2022/08/06 04:24:51;;;;;;;5.70;5.20;;;22.10;83.00;;;;;;5958195;23;20661;-91
2022/08/06 04:27:20;;;;;;;5.78;5.28;;;22.10;82.90;;;;;;5958242;23;20242;-91
2022/08/06 04:29:49;;;;;;;5.57;5.07;;;22.10;82.70;;;;;;5925774;23;20153;-90
2022/08/06 04:32:25;;;;;;;5.57;5.07;;;22.10;82.80;;;;;;6019078;23;20183;-90
2022/08/06 04:35:04;;;;;;;5.50;5.00;;;22.20;82.80;;;;;;5995456;23;20177;-92
2022/08/06 04:37:35;;;;;;;5.55;5.05;;;22.20;82.70;;;;;;5970369;23;20180;-91
2022/08/06 04:40:19;;;;;;;5.70;5.20;;;22.20;82.70;;;;;;5977864;24;20183;-91
2022/08/06 04:42:51;;;;;;;5.55;5.05;;;22.20;82.30;;;;;;5992596;23;20189;-90
2022/08/06 04:45:21;;;;;;;5.72;5.22;;;22.20;82.00;;;;;;6042894;23;20625;-90
2022/08/06 04:48:26;;;;;;;5.40;4.90;;;22.30;82.00;;;;;;5990021;23;20162;-91
2022/08/06 04:51:04;;;;;;;5.60;5.10;;;22.30;81.90;;;;;;5982328;24;20163;-90
2022/08/06 04:53:41;;;;;;;6.18;5.15;;;22.30;81.60;;;;;;6030815;23;20207;-91
2022/08/06 04:56:14;;;;;;;6.10;5.20;;;22.30;82.20;;;;;;5985366;23;20699;-90
2022/08/06 04:58:42;;;;;;;5.90;5.40;;;22.40;81.40;;;;;;6034095;23;20155;-91
2022/08/06 05:01:14;;;;;;;5.50;5.00;;;22.30;81.10;;;;;;5982597;23;20181;-91
2022/08/06 05:03:43;;;;;;;5.57;5.07;;;22.40;81.00;;;;;;6008498;23;20607;-91
2022/08/06 05:06:18;;;;;;;5.72;5.05;;;22.40;80.90;;;;;;5986085;24;20494;-90
2022/08/06 05:09:02;;;;;;;5.75;5.25;;;22.40;80.60;;;;;;6010036;23;20539;-91
2022/08/06 05:11:33;;;;;;;5.18;4.72;;;22.40;80.50;;;;;;6018337;23;20157;-90
2022/08/06 05:14:10;;;;;;;5.75;5.25;;;22.40;80.70;;;;;;6018678;23;20631;-90
2022/08/06 05:16:39;;;;;;;5.43;4.93;;;22.40;80.50;;;;;;6017434;23;20154;-90
2022/08/06 05:19:08;;;;;;;5.82;5.32;;;22.40;80.60;;;;;;6007454;23;20171;-91
2022/08/06 05:21:36;;;;;;;5.72;5.22;;;22.50;80.40;;;;;;5982582;23;20197;-90
2022/08/06 05:24:16;;;;;;;5.63;5.13;;;22.40;80.40;;;;;;5984544;23;20211;-91
2022/08/06 05:26:46;;;;;;;5.15;4.75;;;22.40;80.70;;;;;;5985370;23;20170;-90
2022/08/06 05:29:19;;;;;;;6.28;5.22;;;22.40;80.70;;;;;;5985331;23;20199;-91
2022/08/06 05:31:45;;;;;;;5.65;5.15;;;22.40;80.50;;;;;;5985793;23;20584;-91
2022/08/06 05:34:13;;;;;;;5.50;5.00;;;22.50;80.50;;;;;;6041822;23;20160;-91
2022/08/06 05:37:06;;;;;;;5.55;5.05;;;22.40;80.50;;;;;;6140230;23;20186;-91
2022/08/06 05:39:32;;;;;;;5.90;5.35;;;22.40;80.70;;;;;;6188216;23;20151;-91
2022/08/06 05:42:00;;;;;;;5.30;4.80;;;22.40;80.30;;;;;;6114789;23;20253;-91
2022/08/06 05:44:39;;;;;;;5.45;4.95;;;22.40;80.70;;;;;;6113878;23;20174;-91
2022/08/06 05:47:10;;;;;;;5.18;4.78;;;22.40;80.80;;;;;;6138574;23;20502;-90
2022/08/06 05:49:45;;;;;;;5.80;5.30;;;22.40;80.70;;;;;;6114993;23;20147;-91
2022/08/06 05:52:19;;;;;;;5.68;5.07;;;22.30;80.70;;;;;;6114405;23;20478;-90
2022/08/06 05:54:47;;;;;;;6.10;5.53;;;22.40;80.70;;;;;;6119331;23;20197;-90
2022/08/06 05:57:24;;;;;;;5.68;5.18;;;22.40;80.80;;;;;;6017445;23;20162;-91
2022/08/06 05:59:59;;;;;;;5.15;4.70;;;22.40;80.40;;;;;;5994966;23;20676;-91
2022/08/06 06:02:27;;;;;;;5.53;4.97;;;22.30;80.70;;;;;;6038584;23;20184;-90
2022/08/06 06:04:53;;;;;;;5.50;5.00;;;22.30;80.70;;;;;;6075567;23;20590;-90
2022/08/06 06:07:19;;;;;;;5.70;5.20;;;22.30;80.70;;;;;;6075768;23;20148;-91
2022/08/06 06:09:46;;;;;;;5.40;4.90;;;22.30;80.70;;;;;;6075313;23;20144;-90
2022/08/06 06:12:11;;;;;;;5.95;5.35;;;22.30;80.50;;;;;;6076186;23;20202;-91
2022/08/06 06:14:40;;;;;;;5.90;5.40;;;22.30;80.90;;;;;;6074958;23;20564;-90
2022/08/06 06:17:31;;;;;;;5.65;5.15;;;22.20;80.80;;;;;;6074479;23;20219;-90
2022/08/06 06:20:25;;;;;;;5.28;4.78;;;22.30;81.00;;;;;;6123307;23;20207;-90
2022/08/06 06:23:13;;;;;;;5.32;4.82;;;22.20;80.90;;;;;;6083405;23;20183;-90
2022/08/06 06:25:42;;;;;;;5.22;4.75;;;22.20;81.10;;;;;;6122785;23;20144;-90
2022/08/06 06:28:27;;;;;;;5.30;4.80;;;22.20;81.00;;;;;;6098249;23;20205;-91
2022/08/06 06:31:01;;;;;;;5.10;4.70;;;22.20;80.90;;;;;;6099049;23;20504;-91
2022/08/06 06:33:42;;;;;;;5.43;4.93;;;22.30;81.10;;;;;;6099981;23;20139;-91
2022/08/06 06:36:25;;;;;;;4.97;4.57;;;22.20;81.00;;;;;;6099363;23;20144;-90
2022/08/06 06:39:04;;;;;;;5.50;5.00;;;22.20;81.10;;;;;;6077144;23;20484;-90
2022/08/06 06:41:42;;;;;;;5.32;4.82;;;22.20;81.20;;;;;;6075870;23;20180;-90
2022/08/06 06:44:18;;;;;;;5.78;5.18;;;22.20;81.00;;;;;;6075909;23;20148;-91
2022/08/06 06:46:57;;;;;;;5.50;5.00;;;22.20;81.20;;;;;;6099996;23;20151;-91
2022/08/06 06:49:47;;;;;;;5.38;4.88;;;22.20;81.00;;;;;;6100681;23;20148;-91
2022/08/06 06:52:24;;;;;;;5.10;4.70;;;22.20;81.20;;;;;;6100245;23;20247;-91
2022/08/06 06:54:54;;;;;;;5.07;4.57;;;22.20;82.00;;;;;;6080917;22;20650;-91
2022/08/06 06:57:23;;;;;;;5.10;4.60;;;22.20;80.80;;;;;;6081730;23;20164;-91
2022/08/06 06:59:53;;;;;;;5.30;4.80;;;22.20;80.80;;;;;;6081596;23;20152;-91
2022/08/06 07:02:24;;;;;;;5.47;4.97;;;22.20;80.70;;;;;;6104352;23;20618;-90
2022/08/06 07:04:50;;;;;;;5.70;5.07;;;22.20;80.70;;;;;;6080717;23;20151;-90
2022/08/06 07:07:17;;;;;;;4.85;4.45;;;22.20;80.70;;;;;;6081060;23;20234;-90
2022/08/06 07:09:44;;;;;;;5.68;5.18;;;22.20;80.70;;;;;;6081445;23;20148;-91
2022/08/06 07:12:15;;;;;;;4.43;4.03;;;22.20;80.50;;;;;;6080047;23;20552;-91
2022/08/06 07:14:50;;;;;;;4.85;4.38;;;22.20;79.10;;;;;;6069317;23;20160;-91
2022/08/06 07:17:18;;;;;;;4.30;3.90;;;22.20;78.20;;;;;;6045166;23;20152;-91
2022/08/06 07:19:45;;;;;;;4.47;4.07;;;22.10;76.70;;;;;;6022632;23;20180;-91
2022/08/06 07:22:14;;;;;;;4.50;4.10;;;22.10;76.70;;;;;;6022704;23;20212;-90
2022/08/06 07:24:40;;;;;;;3.85;3.55;;;22.00;75.90;;;;;;6045544;23;20156;-91
2022/08/06 07:27:08;;;;;;;4.00;3.70;;;21.90;76.00;;;;;;6045331;23;20584;-91
2022/08/06 07:29:42;;;;;;;3.85;3.55;;;21.90;75.70;;;;;;6021917;23;20572;-90
2022/08/06 07:32:08;;;;;;;3.55;3.25;;;21.80;75.60;;;;;;6046413;23;20156;-90
2022/08/06 07:34:39;;;;;;;3.60;3.30;;;21.90;74.90;;;;;;6022800;23;20646;-90
2022/08/06 07:37:09;;;;;;;3.67;3.38;;;21.90;74.90;;;;;;6046515;23;20149;-90
2022/08/06 07:39:38;;;;;;;3.60;3.30;;;21.80;74.70;;;;;;6140557;23;20156;-90
2022/08/06 07:42:11;;;;;;;3.40;3.10;;;21.80;74.30;;;;;;6187813;23;20245;-91
2022/08/06 07:44:45;;;;;;;3.58;3.28;;;21.70;74.30;;;;;;6189456;23;20474;-90
2022/08/06 07:47:29;;;;;;;3.40;3.10;;;21.70;74.00;;;;;;6163507;23;20606;-90
2022/08/06 07:50:04;;;;;;;3.40;3.10;;;21.70;73.60;;;;;;6122075;23;20152;-90
2022/08/06 07:52:40;;;;;;;2.78;2.58;;;21.70;73.40;;;;;;6028177;23;20160;-91
2022/08/06 07:55:11;;;;;;;3.45;3.15;;;21.70;72.90;;;;;;5979584;23;20199;-91
2022/08/06 07:57:38;;;;;;;3.50;3.20;;;21.80;73.00;;;;;;5979492;23;20509;-91
2022/08/06 08:00:09;;;;;;;3.45;3.00;;;21.60;72.80;;;;;;6068767;23;20189;-90
2022/08/06 08:02:39;;;;;;;3.25;2.95;;;21.60;72.40;;;;;;6068691;23;20182;-91
2022/08/06 08:08:00;;;;;;;3.20;2.90;;;21.70;71.80;;;;;;6103470;23;20155;-90
2022/08/06 08:10:32;;;;;;;3.17;2.80;;;21.80;71.80;;;;;;6054422;23;20159;-91
2022/08/06 08:12:59;;;;;;;3.30;3.10;;;21.80;71.50;;;;;;6076531;23;20575;-91
2022/08/06 08:15:33;;;;;;;3.10;2.72;;;21.90;71.40;;;;;;6106585;23;20156;-90
2022/08/06 08:18:05;;;;;;;3.50;3.20;;;22.00;70.80;;;;;;6078328;23;20153;-90
2022/08/06 08:20:36;;;;;;;3.40;3.10;;;22.00;70.90;;;;;;6014762;23;20178;-90
2022/08/06 08:23:06;;;;;;;3.60;3.30;;;22.00;70.80;;;;;;5997058;23;20186;-91
2022/08/06 08:25:34;;;;;;;3.75;3.45;;;22.10;71.20;;;;;;6002618;23;20166;-91
2022/08/06 08:28:13;;;;;;;3.33;3.03;;;22.00;70.70;;;;;;5988449;23;20155;-91
2022/08/06 08:30:40;;;;;;;3.75;3.42;;;22.00;70.90;;;;;;5990553;23;20239;-91
2022/08/06 08:33:10;;;;;;;3.60;3.30;;;22.10;71.00;;;;;;5983089;23;20181;-91
2022/08/06 08:35:38;;;;;;;3.72;3.42;;;22.10;70.80;;;;;;5978871;23;20163;-91
2022/08/06 08:38:06;;;;;;;3.83;3.53;;;22.10;70.40;;;;;;6007454;23;20163;-91
2022/08/06 08:40:36;;;;;;;3.85;3.55;;;22.10;70.30;;;;;;5955552;23;20578;-91
2022/08/06 08:43:09;;;;;;;3.42;3.13;;;22.10;70.00;;;;;;5935839;24;20188;-91
2022/08/06 08:45:46;;;;;;;3.33;3.03;;;22.20;69.60;;;;;;5983609;24;20242;-91
2022/08/06 08:48:18;;;;;;;3.40;3.10;;;22.20;69.20;;;;;;5955003;24;20608;-91
2022/08/06 08:50:57;;;;;;;3.30;3.00;;;22.20;69.80;;;;;;5931560;24;20245;-91
2022/08/06 08:53:33;;;;;;;3.35;3.08;;;22.20;69.10;;;;;;5935680;24;20157;-91
2022/08/06 08:56:11;;;;;;;3.55;3.25;;;22.30;68.70;;;;;;5928272;24;20203;-91
2022/08/06 08:58:48;;;;;;;3.17;2.88;;;22.30;68.80;;;;;;5933324;24;20163;-91
2022/08/06 09:01:22;;;;;;;3.60;3.30;;;22.30;68.30;;;;;;5932500;24;20271;-90
2022/08/06 09:03:48;;;;;;;3.22;3.00;;;22.30;68.50;;;;;;5965880;24;20155;-90
2022/08/06 09:06:16;;;;;;;2.95;2.75;;;22.30;68.60;;;;;;5983298;24;20208;-90
2022/08/06 09:08:50;;;;;;;3.45;3.10;;;22.30;67.70;;;;;;5983371;24;20152;-90
2022/08/06 09:11:16;;;;;;;3.20;2.90;;;22.30;67.80;;;;;;6004453;23;20165;-89
2022/08/06 09:13:45;;;;;;;2.83;2.63;;;22.30;67.10;;;;;;6040230;23;20237;-91
2022/08/06 09:16:18;;;;;;;3.00;2.65;;;22.30;66.80;;;;;;6041692;23;20175;-90
2022/08/06 09:18:54;;;;;;;2.75;2.55;;;22.40;66.50;;;;;;6027548;23;20154;-90
2022/08/06 09:21:30;;;;;;;3.10;2.90;;;22.40;66.20;;;;;;6022296;23;20193;-90
2022/08/06 09:24:01;;;;;;;3.30;3.00;;;22.30;67.10;;;;;;5918017;23;20156;-91
2022/08/06 09:26:39;;;;;;;;;;;;;;;;;;;;;
2022/08/06 09:29:57;;;;;;;3.20;2.90;;;22.40;66.20;;;;;;5928768;23;20529;-92
2022/08/06 09:33:17;;;;;;;3.75;2.67;;;22.40;64.40;;;;;;5954307;23;20160;-91
2022/08/06 09:36:16;;;;;;;2.97;2.70;;;22.40;65.00;;;;;;5971768;24;20276;-90
2022/08/06 09:39:05;;;;;;;3.10;2.83;;;22.40;65.30;;;;;;5950587;24;20162;-90
2022/08/06 09:42:28;;;;;;;3.30;3.00;;;22.40;64.80;;;;;;5972255;24;20211;-92
2022/08/06 09:45:14;;;;;;;2.80;2.60;;;22.50;64.20;;;;;;5971000;24;20284;-91
2022/08/06 09:47:50;;;;;;;3.28;2.40;;;22.50;64.20;;;;;;5941888;24;20156;-91
2022/08/06 09:50:42;;;;;;;3.03;2.70;;;22.50;63.60;;;;;;5940183;24;20166;-90
2022/08/06 09:53:21;;;;;;;11.48;2.80;;;22.50;64.10;;;;;;5887975;24;20157;-91
2022/08/06 09:55:47;;;;;;;2.55;2.35;;;22.50;62.60;;;;;;5892913;24;20330;-91
2022/08/06 09:58:34;;;;;;;2.90;2.70;;;22.60;62.70;;;;;;5933195;24;20182;-91
2022/08/06 10:01:23;;;;;;;2.78;2.40;;;22.50;62.90;;;;;;5910581;24;20164;-91
2022/08/06 10:03:54;;;;;;;2.53;2.33;;;22.60;62.20;;;;;;5883754;24;20169;-90
2022/08/06 10:06:42;;;;;;;2.60;2.40;;;22.60;61.30;;;;;;5904892;24;20162;-91
2022/08/06 10:09:25;;;;;;;2.17;1.98;;;22.60;61.20;;;;;;5911469;24;20175;-91
2022/08/06 10:12:00;;;;;;;2.55;2.35;;;22.50;61.00;;;;;;5900306;24;20161;-91
2022/08/06 10:14:27;;;;;;;2.35;2.15;;;22.60;60.80;;;;;;5880793;23;20589;-90
2022/08/06 10:17:12;;;;;;;2.00;1.83;;;22.60;59.90;;;;;;5885072;23;20192;-90
2022/08/06 10:19:41;;;;;;;2.50;2.30;;;22.50;59.70;;;;;;5960284;23;20287;-91
2022/08/06 10:22:16;;;;;;;2.47;2.28;;;22.50;60.00;;;;;;5961462;23;20273;-90
2022/08/06 10:24:44;;;;;;;2.40;2.20;;;22.40;59.70;;;;;;5960453;23;20533;-90
2022/08/06 10:27:14;;;;;;;2.10;1.95;;;22.40;60.00;;;;;;5960566;23;20161;-90
2022/08/06 10:29:53;;;;;;;2.83;1.90;;;22.30;59.60;;;;;;6019124;23;20156;-91
2022/08/06 10:35:52;;;;;;;1.92;1.80;;;22.20;59.10;;;;;;6123026;23;20167;-90
2022/08/06 10:38:21;;;;;;;2.50;1.80;;;22.20;58.70;;;;;;6075251;23;20160;-90
2022/08/06 10:40:48;;;;;;;1.55;1.45;;;22.20;58.80;;;;;;6074839;23;20160;-91
2022/08/06 10:43:36;;;;;;;1.80;1.70;;;22.20;58.90;;;;;;6076093;23;20160;-90
2022/08/06 10:46:25;;;;;;;2.58;1.73;;;22.10;58.70;;;;;;6101071;23;20171;-90
2022/08/06 10:49:03;;;;;;;1.50;1.40;;;22.10;58.80;;;;;;6017730;23;20625;-90
2022/08/06 10:51:35;;;;;;;2.15;1.73;;;22.10;58.60;;;;;;5993874;23;20189;-90
2022/08/06 10:54:08;;;;;;;1.55;1.45;;;22.00;58.60;;;;;;6017556;23;20160;-90
2022/08/06 10:56:39;;;;;;;1.27;1.20;;;22.00;58.40;;;;;;5994361;23;20201;-91
2022/08/06 10:59:05;;;;;;;1.42;1.30;;;22.10;58.10;;;;;;6016615;23;20157;-90
2022/08/06 11:01:56;;;;;;;1.60;1.50;;;22.10;58.20;;;;;;6015720;23;20627;-91
2022/08/06 11:04:47;;;;;;;1.42;1.30;;;22.10;58.00;;;;;;6016353;23;20145;-90
2022/08/06 11:07:47;;;;;;;1.00;1.00;;;22.10;58.10;;;;;;6016382;23;20158;-91
2022/08/06 11:10:47;;;;;;;2.33;1.30;;;22.10;57.80;;;;;;6021548;23;20606;-90
2022/08/06 11:13:36;;;;;;;1.30;1.20;;;22.20;57.70;;;;;;6017029;23;20168;-90
2022/08/06 11:16:05;;;;;;;1.40;1.08;;;22.10;57.70;;;;;;6021441;23;20161;-90
2022/08/06 11:18:42;;;;;;;1.50;1.40;;;22.20;57.40;;;;;;6018904;23;20156;-91
2022/08/06 11:21:11;;;;;;;1.60;1.50;;;22.20;57.60;;;;;;6014000;23;20181;-90
2022/08/06 11:23:44;;;;;;;2.05;1.10;;;22.20;57.70;;;;;;5967003;23;20155;-91
2022/08/06 11:26:16;;;;;;;1.55;1.45;;;22.10;57.70;;;;;;5977697;23;20161;-91
2022/08/06 11:28:58;;;;;;;1.48;1.38;;;22.00;57.60;;;;;;5990371;23;20161;-90
2022/08/06 11:31:32;;;;;;;1.50;1.40;;;22.00;57.50;;;;;;6106371;23;20177;-90
2022/08/06 11:34:03;;;;;;;1.20;1.10;;;22.00;57.50;;;;;;5937545;23;20162;-90
2022/08/06 11:36:43;;;;;;;1.50;1.40;;;22.00;57.20;;;;;;5937946;23;20270;-90
2022/08/06 11:39:22;;;;;;;1.30;1.20;;;22.00;57.20;;;;;;5937710;23;20463;-91
2022/08/06 11:41:56;;;;;;;1.20;1.10;;;22.10;56.80;;;;;;5881074;23;20244;-90
2022/08/06 11:44:28;;;;;;;1.20;1.10;;;22.00;56.80;;;;;;5903247;23;20183;-90
2022/08/06 11:47:21;;;;;;;;;;;;;;;;;;;;;
2022/08/06 11:49:50;;;;;;;3.13;1.25;;;22.00;56.70;;;;;;5905217;23;20297;-90
2022/08/06 11:52:40;;;;;;;1.95;1.40;;;22.00;56.50;;;;;;5928050;23;20160;-90
2022/08/06 11:55:11;;;;;;;1.70;1.60;;;22.00;56.40;;;;;;5941981;23;20202;-90
2022/08/06 11:57:40;;;;;;;1.08;0.98;;;22.00;56.30;;;;;;5961752;23;20166;-91
2022/08/06 12:00:11;;;;;;;1.35;1.25;;;22.00;56.00;;;;;;5938135;23;20583;-90
2022/08/06 12:02:49;;;;;;;3.22;1.27;;;22.10;56.00;;;;;;5971766;23;20192;-90
2022/08/06 12:05:36;;;;;;;2.10;1.27;;;22.10;56.00;;;;;;6001980;23;20236;-90
2022/08/06 12:08:19;;;;;;;2.38;1.42;;;22.10;56.20;;;;;;6085262;23;20478;-90
2022/08/06 12:11:18;;;;;;;1.52;1.00;;;22.10;56.00;;;;;;6129109;23;20649;-90
2022/08/06 12:13:47;;;;;;;3.00;1.20;;;22.10;55.90;;;;;;6126978;23;20163;-90
2022/08/06 12:16:30;;;;;;;2.08;1.20;;;22.10;55.70;;;;;;6103339;23;20194;-90
2022/08/06 12:18:57;;;;;;;2.75;1.20;;;22.10;55.80;;;;;;6103632;23;20151;-91
2022/08/06 12:21:25;;;;;;;7.18;1.67;;;22.20;55.80;;;;;;6079237;23;20187;-90
2022/08/06 12:23:53;;;;;;;2.97;1.20;;;22.10;55.70;;;;;;6079949;23;20155;-90
2022/08/06 12:26:20;;;;;;;1.35;1.20;;;22.10;55.30;;;;;;6044497;23;20152;-90
2022/08/06 12:28:48;;;;;;;1.30;1.20;;;22.10;55.30;;;;;;6044496;23;20578;-90
2022/08/06 12:31:27;;;;;;;1.45;1.00;;;22.20;55.10;;;;;;6068251;23;20145;-90
2022/08/06 12:33:54;;;;;;;1.80;1.23;;;22.30;55.00;;;;;;6070805;23;20156;-90
2022/08/06 12:36:24;;;;;;;1.10;1.00;;;22.30;54.70;;;;;;6043872;23;20193;-90
2022/08/06 12:38:55;;;;;;;1.55;0.90;;;22.30;54.80;;;;;;6045071;23;20157;-90
2022/08/06 12:41:21;;;;;;;1.70;1.38;;;22.30;54.50;;;;;;6045022;23;20192;-90
2022/08/06 12:43:47;;;;;;;1.13;1.02;;;22.30;54.50;;;;;;6068114;23;20585;-90
2022/08/06 12:46:16;;;;;;;2.78;1.38;;;22.30;54.40;;;;;;6044236;23;20145;-90
2022/08/06 12:48:48;;;;;;;1.85;1.10;;;22.30;54.40;;;;;;6043172;23;20152;-90
2022/08/06 12:51:13;;;;;;;1.05;1.00;;;22.20;54.40;;;;;;6044139;23;20157;-90
2022/08/06 12:53:41;;;;;;;1.55;1.20;;;22.10;54.40;;;;;;6043689;23;20263;-89
2022/08/06 12:56:10;;;;;;;1.30;1.20;;;22.10;54.50;;;;;;6066565;23;20641;-90
2022/08/06 12:58:39;;;;;;;0.93;0.90;;;22.10;54.90;;;;;;6043159;23;20726;-89
2022/08/06 13:01:06;;;;;;;1.02;0.95;;;22.00;55.20;;;;;;6042976;23;20156;-90
2022/08/06 13:03:37;;;;;;;0.98;0.95;;;22.00;55.70;;;;;;6043176;23;20188;-90
2022/08/06 13:06:06;;;;;;;1.00;0.95;;;22.00;55.80;;;;;;6042818;23;20141;-90
2022/08/06 13:08:41;;;;;;;1.00;0.98;;;21.90;56.20;;;;;;6066826;23;20144;-91
2022/08/06 13:11:07;;;;;;;0.85;0.80;;;21.90;56.50;;;;;;6042766;23;20190;-90
2022/08/06 13:13:37;;;;;;;0.90;0.80;;;21.80;56.80;;;;;;6042674;23;20235;-90
2022/08/06 13:16:07;;;;;;;2.13;1.02;;;21.80;57.10;;;;;;6043476;23;20141;-89
2022/08/06 13:18:34;;;;;;;1.00;1.00;;;21.80;57.40;;;;;;6042960;23;20170;-89
2022/08/06 13:21:01;;;;;;;2.28;1.10;;;21.80;57.50;;;;;;6043296;23;20137;-90
2022/08/06 13:23:34;;;;;;;0.90;0.90;;;21.70;58.10;;;;;;6064038;23;20244;-89
2022/08/06 13:26:11;;;;;;;1.30;0.98;;;21.70;57.50;;;;;;6072789;23;20157;-90
2022/08/06 13:28:37;;;;;;;1.05;1.05;;;21.70;57.30;;;;;;6073800;23;20168;-90